createdAt,value
2022-09-12T00:01:46.180Z,79.31
2022-09-12T00:04:16.367Z,79.67
2022-09-12T00:06:44.374Z,79.90
2022-09-12T00:09:14.468Z,80.66
2022-09-12T00:11:47.120Z,80.95
2022-09-12T00:14:18.803Z,80.86
2022-09-12T00:16:47.057Z,80.22
2022-09-12T00:19:15.245Z,80.36
2022-09-12T00:21:44.785Z,79.81
2022-09-12T00:24:12.658Z,79.62
2022-09-12T00:26:40.706Z,80.47
2022-09-12T00:29:15.307Z,80.89
2022-09-12T00:31:43.229Z,80.94
2022-09-12T00:34:11.889Z,80.51
2022-09-12T00:36:42.253Z,80.09
2022-09-12T00:39:16.787Z,80.21
2022-09-12T00:41:45.541Z,80.60
2022-09-12T00:44:47.645Z,79.97
2022-09-12T00:47:37.616Z,79.90
2022-09-12T00:50:13.201Z,79.35
2022-09-12T00:52:51.647Z,78.74
2022-09-12T00:55:26.310Z,79.68
2022-09-12T00:58:00.695Z,80.41
2022-09-12T01:00:30.411Z,80.05
2022-09-12T01:03:07.181Z,79.56
2022-09-12T01:05:40.845Z,80.16
2022-09-12T01:08:08.674Z,80.17
2022-09-12T01:10:40.094Z,80.10
2022-09-12T01:13:11.020Z,80.67
2022-09-12T01:15:41.126Z,79.28
2022-09-12T01:18:21.025Z,80.04
2022-09-12T01:21:08.954Z,79.86
2022-09-12T01:24:12.092Z,79.09
2022-09-12T01:27:47.765Z,78.39
2022-09-12T01:30:39.424Z,79.07
2022-09-12T01:33:48.845Z,79.49
2022-09-12T01:36:38.085Z,79.65
2022-09-12T01:39:12.313Z,79.60
2022-09-12T01:41:52.944Z,80.33
2022-09-12T01:44:35.013Z,80.21
2022-09-12T01:47:10.048Z,79.74
2022-09-12T01:49:50.017Z,79.54
2022-09-12T01:52:26.402Z,78.94
2022-09-12T01:55:01.528Z,78.93
2022-09-12T01:57:41.274Z,79.46
2022-09-12T02:00:13.076Z,79.35
2022-09-12T02:02:55.446Z,79.45
2022-09-12T02:05:33.495Z,79.69
2022-09-12T02:08:09.602Z,80.17
2022-09-12T02:10:45.286Z,80.71
2022-09-12T02:13:22.365Z,80.06
2022-09-12T02:15:58.927Z,80.08
2022-09-12T02:18:32.810Z,80.46
2022-09-12T02:21:06.474Z,80.84
2022-09-12T02:23:41.386Z,80.79
2022-09-12T02:26:21.581Z,79.66
2022-09-12T02:28:50.923Z,79.61
2022-09-12T02:31:28.263Z,79.51
2022-09-12T02:34:13.334Z,79.81
2022-09-12T02:36:52.265Z,80.01
2022-09-12T02:39:21.224Z,79.36
2022-09-12T02:41:53.155Z,79.30
2022-09-12T02:44:21.722Z,79.01
2022-09-12T02:46:57.496Z,79.03
2022-09-12T02:49:27.872Z,78.82
2022-09-12T02:51:56.212Z,78.98
2022-09-12T02:54:25.658Z,78.14
2022-09-12T02:56:53.748Z,78.68
2022-09-12T02:59:25.164Z,79.54
2022-09-12T03:02:25.048Z,79.29
2022-09-12T03:05:22.878Z,79.75
2022-09-12T03:08:26.772Z,78.95
2022-09-12T03:11:43.315Z,79.21
2022-09-12T03:14:30.616Z,79.45
2022-09-12T03:17:14.418Z,80.45
2022-09-12T03:19:55.284Z,80.30
2022-09-12T03:22:33.780Z,80.17
2022-09-12T03:25:13.496Z,80.87
2022-09-12T03:27:48.790Z,81.26
2022-09-12T03:30:17.007Z,81.37
2022-09-12T03:32:48.595Z,80.52
2022-09-12T03:35:22.971Z,81.83
2022-09-12T03:37:53.547Z,81.10
2022-09-12T03:40:21.732Z,80.81
2022-09-12T03:42:49.828Z,81.89
2022-09-12T03:45:18.030Z,82.01
2022-09-12T03:47:45.956Z,82.70
2022-09-12T03:50:16.153Z,81.70
2022-09-12T03:52:44.146Z,83.17
2022-09-12T03:55:13.545Z,82.98
2022-09-12T03:57:42.070Z,81.37
2022-09-12T04:00:14.422Z,82.20
2022-09-12T04:02:45.580Z,82.45
2022-09-12T04:05:13.619Z,82.41
2022-09-12T04:07:41.741Z,82.79
2022-09-12T04:10:10.302Z,82.48
2022-09-12T04:12:39.841Z,82.06
2022-09-12T04:15:10.195Z,82.02
2022-09-12T04:17:39.566Z,81.50
2022-09-12T04:20:08.360Z,81.93
2022-09-12T04:22:36.572Z,83.06
2022-09-12T04:25:05.626Z,82.66
2022-09-12T04:27:34.777Z,81.93
2022-09-12T04:30:06.171Z,82.18
2022-09-12T04:32:34.032Z,81.05
2022-09-12T04:35:02.188Z,81.21
2022-09-12T04:37:31.239Z,80.79
2022-09-12T04:40:01.156Z,81.39
2022-09-12T04:42:29.883Z,81.20
2022-09-12T04:44:58.023Z,81.74
2022-09-12T04:47:27.417Z,81.37
2022-09-12T04:49:55.582Z,81.52
2022-09-12T04:52:23.445Z,80.46
2022-09-12T04:54:51.278Z,81.03
2022-09-12T04:57:19.379Z,80.79
2022-09-12T04:59:47.256Z,80.91
2022-09-12T05:02:15.310Z,80.47
2022-09-12T05:04:47.005Z,80.92
2022-09-12T05:07:14.893Z,80.71
2022-09-12T05:09:43.195Z,80.39
2022-09-12T05:12:11.258Z,79.42
2022-09-12T05:14:39.498Z,80.42
2022-09-12T05:17:08.361Z,79.96
2022-09-12T05:19:36.939Z,81.22
2022-09-12T05:22:07.426Z,81.47
2022-09-12T05:24:36.111Z,81.14
2022-09-12T05:27:04.728Z,81.68
2022-09-12T05:29:32.672Z,82.16
2022-09-12T05:32:01.955Z,81.00
2022-09-12T05:34:30.083Z,81.64
2022-09-12T05:36:58.207Z,81.28
2022-09-12T05:39:28.358Z,79.99
2022-09-12T05:41:56.546Z,79.91
2022-09-12T05:44:24.827Z,79.42
2022-09-12T05:46:53.574Z,78.83
2022-09-12T05:49:21.617Z,77.83
2022-09-12T05:51:50.901Z,79.11
2022-09-12T05:54:20.560Z,78.24
2022-09-12T05:56:49.869Z,77.57
2022-09-12T05:59:20.535Z,76.26
2022-09-12T06:01:49.631Z,76.05
2022-09-12T06:04:17.891Z,77.13
2022-09-12T06:06:46.758Z,76.73
2022-09-12T06:09:16.541Z,75.44
2022-09-12T06:11:46.601Z,75.47
2022-09-12T06:14:17.636Z,75.76
2022-09-12T06:16:48.098Z,75.50
2022-09-12T06:19:19.485Z,75.45
2022-09-12T06:21:50.020Z,73.41
2022-09-12T06:24:19.994Z,72.34
2022-09-12T06:26:49.787Z,71.46
2022-09-12T06:29:19.620Z,69.83
2022-09-12T06:31:47.409Z,69.56
2022-09-12T06:34:16.690Z,68.85
2022-09-12T06:36:47.345Z,67.87
2022-09-12T06:39:17.513Z,67.74
2022-09-12T06:41:47.873Z,66.83
2022-09-12T06:44:20.031Z,67.02
2022-09-12T06:46:48.843Z,66.57
2022-09-12T06:49:17.980Z,66.02
2022-09-12T06:51:47.511Z,65.33
2022-09-12T06:54:17.427Z,66.26
2022-09-12T06:56:45.291Z,64.38
2022-09-12T06:59:13.327Z,63.77
2022-09-12T07:01:42.901Z,63.10
2022-09-12T07:04:13.816Z,63.19
2022-09-12T07:06:44.016Z,62.10
2022-09-12T07:09:17.380Z,62.51
2022-09-12T07:11:46.616Z,61.82
2022-09-12T07:14:16.218Z,61.16
2022-09-12T07:16:45.432Z,60.76
2022-09-12T07:19:13.327Z,62.08
2022-09-12T07:21:43.166Z,60.90
2022-09-12T07:24:11.458Z,60.57
2022-09-12T07:26:41.833Z,60.86
2022-09-12T07:29:36.682Z,61.46
2022-09-12T07:32:07.536Z,61.19
2022-09-12T07:34:35.862Z,60.43
2022-09-12T07:37:03.952Z,60.76
2022-09-12T07:39:32.794Z,61.28
2022-09-12T07:42:02.561Z,61.58
2022-09-12T07:44:30.686Z,61.12
2022-09-12T07:46:58.777Z,61.52
2022-09-12T07:49:28.216Z,60.40
2022-09-12T07:51:56.883Z,60.66
2022-09-12T07:54:24.754Z,61.07
2022-09-12T07:56:52.756Z,60.96
2022-09-12T07:59:41.481Z,61.13
2022-09-12T08:02:17.549Z,61.60
2022-09-12T08:04:49.104Z,60.68
2022-09-12T08:07:19.095Z,59.31
2022-09-12T08:09:49.245Z,60.16
2022-09-12T08:12:20.158Z,60.23
2022-09-12T08:14:48.473Z,59.32
2022-09-12T08:17:16.404Z,59.50
2022-09-12T08:19:44.956Z,59.99
2022-09-12T08:22:14.396Z,59.18
2022-09-12T08:24:44.516Z,58.68
2022-09-12T08:27:17.019Z,58.85
2022-09-12T08:29:45.124Z,57.31
2022-09-12T08:32:13.015Z,58.37
2022-09-12T08:34:40.849Z,56.68
2022-09-12T08:37:08.726Z,57.44
2022-09-12T08:39:40.051Z,56.94
2022-09-12T08:42:24.659Z,56.65
2022-09-12T08:45:11.702Z,56.34
2022-09-12T08:47:45.831Z,56.60
2022-09-12T08:50:20.598Z,54.98
2022-09-12T08:52:58.852Z,54.08
2022-09-12T08:55:35.480Z,52.31
2022-09-12T08:58:17.210Z,52.70
2022-09-12T09:00:59.451Z,52.14
2022-09-12T09:03:58.555Z,52.74
2022-09-12T09:06:52.286Z,51.27
2022-09-12T09:09:39.634Z,49.72
2022-09-12T09:12:23.737Z,51.14
2022-09-12T09:15:14.665Z,50.55
2022-09-12T09:17:51.887Z,49.65
2022-09-12T09:20:32.294Z,50.53
2022-09-12T09:23:08.122Z,50.79
2022-09-12T09:25:52.506Z,49.03
2022-09-12T09:28:31.658Z,50.20
2022-09-12T09:31:00.030Z,48.63
2022-09-12T09:33:35.114Z,48.53
2022-09-12T09:36:20.778Z,45.95
2022-09-12T09:38:54.235Z,45.66
2022-09-12T09:41:51.558Z,46.96
2022-09-12T09:44:21.066Z,45.06
2022-09-12T09:46:54.823Z,45.09
2022-09-12T09:49:25.617Z,45.37
2022-09-12T09:51:58.784Z,45.25
2022-09-12T09:54:36.509Z,43.59
2022-09-12T09:57:05.152Z,44.53
2022-09-12T09:59:35.645Z,46.46
2022-09-12T10:02:24.297Z,46.65
2022-09-12T10:04:58.751Z,46.18
2022-09-12T10:07:27.375Z,45.46
2022-09-12T10:10:14.842Z,43.79
2022-09-12T10:12:43.462Z,43.66
2022-09-12T10:15:26.703Z,42.40
2022-09-12T10:17:56.914Z,43.67
2022-09-12T10:20:38.517Z,42.40
2022-09-12T10:23:30.338Z,41.86
2022-09-12T10:26:03.934Z,40.71
2022-09-12T10:28:39.289Z,41.56
2022-09-12T10:31:17.427Z,39.14
2022-09-12T10:33:53.385Z,37.84
2022-09-12T10:36:29.115Z,37.84
2022-09-12T10:39:03.098Z,35.99
2022-09-12T10:41:40.839Z,35.88
2022-09-12T10:44:17.640Z,34.91
2022-09-12T10:46:47.192Z,35.81
2022-09-12T10:49:27.856Z,34.69
2022-09-12T10:52:15.433Z,36.19
2022-09-12T10:54:43.769Z,33.59
2022-09-12T10:57:44.223Z,34.46
2022-09-12T11:00:17.884Z,32.84
2022-09-12T11:03:08.383Z,32.33
2022-09-12T11:05:57.805Z,32.03
2022-09-12T11:09:06.281Z,32.47
2022-09-12T11:11:58.446Z,31.76
2022-09-12T11:14:44.332Z,30.93
2022-09-12T11:17:30.213Z,31.41
2022-09-12T11:20:39.107Z,31.05
2022-09-12T11:23:44.839Z,31.17
2022-09-12T11:26:34.392Z,31.07
2022-09-12T11:29:16.252Z,30.30
2022-09-12T11:32:10.536Z,30.35
2022-09-12T11:34:58.793Z,30.19
2022-09-12T11:37:49.368Z,30.62
2022-09-12T11:40:30.807Z,29.74
2022-09-12T11:43:07.545Z,29.36
2022-09-12T11:45:42.896Z,30.33
2022-09-12T11:48:28.307Z,29.75
2022-09-12T11:51:02.492Z,28.67
2022-09-12T11:53:40.975Z,29.78
2022-09-12T11:56:18.535Z,27.31
2022-09-12T11:58:58.905Z,26.71
2022-09-12T12:01:45.005Z,27.96
2022-09-12T12:04:27.573Z,27.75
2022-09-12T12:07:03.298Z,27.84
2022-09-12T12:09:37.413Z,27.67
2022-09-12T12:12:16.848Z,28.39
2022-09-12T12:14:49.182Z,27.88
2022-09-12T12:17:23.173Z,27.95
2022-09-12T12:20:05.533Z,28.18
2022-09-12T12:22:36.297Z,28.08
2022-09-12T12:25:29.916Z,27.95
2022-09-12T12:28:01.813Z,29.24
2022-09-12T12:31:01.168Z,26.97
2022-09-12T12:34:00.612Z,28.08
2022-09-12T12:36:52.436Z,28.92
2022-09-12T12:40:04.834Z,27.45
2022-09-12T12:43:31.483Z,28.55
2022-09-12T12:46:05.053Z,29.30
2022-09-12T12:48:46.254Z,28.92
2022-09-12T12:51:44.367Z,27.59
2022-09-12T12:54:50.145Z,27.91
2022-09-12T12:57:52.672Z,27.61
2022-09-12T13:00:35.394Z,27.61
2022-09-12T13:03:23.939Z,29.13
2022-09-12T13:06:00.851Z,28.50
2022-09-12T13:08:33.113Z,29.21
2022-09-12T13:11:08.340Z,30.66
2022-09-12T13:13:44.087Z,30.03
2022-09-12T13:16:35.069Z,31.73
2022-09-12T13:19:08.384Z,31.80
2022-09-12T13:21:36.600Z,31.89
2022-09-12T13:24:13.916Z,32.59
2022-09-12T13:26:46.213Z,29.93
2022-09-12T13:29:18.566Z,29.18
2022-09-12T13:31:54.658Z,29.13
2022-09-12T13:34:29.207Z,29.74
2022-09-12T13:37:28.069Z,28.39
2022-09-12T13:40:16.835Z,29.89
2022-09-12T13:42:51.119Z,28.71
2022-09-12T13:45:22.787Z,27.87
2022-09-12T13:47:58.893Z,28.90
2022-09-12T13:50:32.970Z,28.59
2022-09-12T13:53:07.173Z,27.69
2022-09-12T13:55:41.867Z,26.61
2022-09-12T13:58:21.150Z,27.80
2022-09-12T14:01:02.664Z,27.74
2022-09-12T14:03:58.987Z,28.77
2022-09-12T14:06:27.723Z,27.96
2022-09-12T14:09:01.310Z,27.46
2022-09-12T14:11:34.133Z,27.09
2022-09-12T14:14:17.140Z,27.85
2022-09-12T14:16:45.118Z,28.13
2022-09-12T14:19:16.426Z,27.69
2022-09-12T14:21:46.432Z,28.25
2022-09-12T14:24:15.000Z,29.32
2022-09-12T14:26:44.840Z,27.81
2022-09-12T14:29:17.683Z,28.88
2022-09-12T14:31:46.176Z,30.52
2022-09-12T14:34:18.434Z,30.51
2022-09-12T14:36:49.909Z,29.11
2022-09-12T14:39:31.889Z,29.31
2022-09-12T14:42:06.191Z,31.08
2022-09-12T14:44:36.616Z,30.63
2022-09-12T14:47:20.150Z,30.51
2022-09-12T14:49:54.129Z,30.09
2022-09-12T14:52:28.754Z,31.21
2022-09-12T14:54:59.621Z,30.58
2022-09-12T14:57:39.227Z,30.53
2022-09-12T15:00:26.278Z,29.88
2022-09-12T15:02:54.763Z,30.00
2022-09-12T15:05:27.919Z,28.41
2022-09-12T15:08:00.652Z,29.77
2022-09-12T15:10:32.312Z,29.11
2022-09-12T15:13:19.586Z,30.24
2022-09-12T15:15:51.195Z,29.54
2022-09-12T15:18:20.649Z,28.90
2022-09-12T15:20:54.807Z,29.60
2022-09-12T15:23:40.135Z,29.49
2022-09-12T15:26:11.605Z,30.12
2022-09-12T15:28:40.459Z,30.18
2022-09-12T15:31:20.337Z,30.15
2022-09-12T15:33:49.111Z,30.20
2022-09-12T15:36:23.335Z,29.77
2022-09-12T15:38:53.339Z,29.79
2022-09-12T15:41:26.672Z,29.18
2022-09-12T15:43:54.700Z,30.39
2022-09-12T15:46:23.648Z,31.71
2022-09-12T15:48:52.320Z,31.29
2022-09-12T15:51:22.553Z,32.21
2022-09-12T15:53:51.730Z,31.89
2022-09-12T15:56:21.749Z,32.50
2022-09-12T15:58:58.672Z,33.70
2022-09-12T16:01:28.915Z,33.06
2022-09-12T16:04:01.281Z,33.08
2022-09-12T16:06:36.773Z,33.34
2022-09-12T16:09:05.718Z,34.70
2022-09-12T16:11:34.951Z,33.93
2022-09-12T16:14:04.691Z,35.86
2022-09-12T16:16:32.718Z,34.86
2022-09-12T16:19:00.686Z,35.07
2022-09-12T16:21:29.894Z,35.28
2022-09-12T16:23:59.017Z,35.16
2022-09-12T16:26:26.965Z,34.58
2022-09-12T16:29:06.652Z,35.01
2022-09-12T16:31:39.313Z,35.62
2022-09-12T16:34:07.512Z,34.68
2022-09-12T16:36:36.833Z,35.04
2022-09-12T16:39:06.332Z,34.85
2022-09-12T16:41:34.951Z,34.32
2022-09-12T16:44:05.814Z,34.81
2022-09-12T16:46:34.657Z,34.20
2022-09-12T16:49:02.599Z,35.51
2022-09-12T16:51:38.226Z,35.56
2022-09-12T16:54:06.382Z,35.73
2022-09-12T16:56:34.997Z,36.01
2022-09-12T16:59:04.332Z,36.37
2022-09-12T17:01:35.205Z,36.84
2022-09-12T17:04:06.289Z,36.63
2022-09-12T17:06:35.022Z,37.42
2022-09-12T17:09:05.551Z,37.75
2022-09-12T17:11:39.402Z,37.99
2022-09-12T17:14:08.977Z,39.25
2022-09-12T17:16:40.893Z,39.30
2022-09-12T17:19:18.806Z,39.69
2022-09-12T17:21:49.116Z,39.78
2022-09-12T17:24:20.105Z,39.87
2022-09-12T17:26:51.060Z,39.69
2022-09-12T17:29:20.134Z,40.03
2022-09-12T17:31:50.428Z,40.20
2022-09-12T17:34:18.308Z,41.12
2022-09-12T17:36:48.307Z,41.34
2022-09-12T17:39:18.045Z,41.46
2022-09-12T17:41:47.367Z,41.49
2022-09-12T17:44:16.039Z,42.14
2022-09-12T17:46:44.373Z,42.06
2022-09-12T17:49:16.800Z,42.50
2022-09-12T17:51:47.042Z,43.02
2022-09-12T17:54:20.793Z,43.33
2022-09-12T17:56:51.479Z,43.92
2022-09-12T17:59:23.904Z,44.55
2022-09-12T18:02:10.501Z,45.59
2022-09-12T18:04:42.257Z,46.35
2022-09-12T18:07:10.538Z,45.96
2022-09-12T18:09:41.451Z,45.39
2022-09-12T18:12:12.669Z,46.25
2022-09-12T18:14:40.913Z,47.06
2022-09-12T18:17:11.365Z,47.44
2022-09-12T18:19:40.954Z,47.80
2022-09-12T18:22:09.434Z,48.21
2022-09-12T18:24:39.756Z,47.92
2022-09-12T18:27:07.689Z,47.25
2022-09-12T18:29:36.409Z,47.86
2022-09-12T18:32:04.472Z,49.86
2022-09-12T18:34:32.951Z,48.36
2022-09-12T18:37:01.857Z,50.19
2022-09-12T18:39:29.761Z,50.88
2022-09-12T18:41:59.166Z,51.01
2022-09-12T18:44:27.874Z,50.35
2022-09-12T18:46:56.667Z,50.39
2022-09-12T18:49:24.630Z,49.93
2022-09-12T18:51:52.719Z,50.46
2022-09-12T18:54:20.783Z,49.74
2022-09-12T18:56:48.797Z,49.29
2022-09-12T18:59:20.602Z,49.17
2022-09-12T19:01:48.774Z,49.01
2022-09-12T19:04:17.303Z,48.92
2022-09-12T19:06:48.215Z,49.13
2022-09-12T19:09:20.634Z,49.32
2022-09-12T19:11:50.361Z,49.44
2022-09-12T19:14:23.049Z,49.41
2022-09-12T19:16:52.844Z,49.48
2022-09-12T19:19:22.942Z,49.92
2022-09-12T19:21:51.889Z,49.59
2022-09-12T19:24:21.678Z,50.31
2022-09-12T19:26:51.496Z,50.06
2022-09-12T19:29:22.019Z,50.05
2022-09-12T19:31:54.076Z,50.68
2022-09-12T19:34:22.938Z,50.27
2022-09-12T19:36:50.855Z,50.51
2022-09-12T19:39:19.864Z,50.47
2022-09-12T19:41:48.270Z,50.21
2022-09-12T19:44:19.154Z,50.66
2022-09-12T19:46:48.479Z,51.28
2022-09-12T19:49:16.383Z,53.28
2022-09-12T19:51:45.485Z,54.35
2022-09-12T19:54:14.755Z,53.19
2022-09-12T19:56:42.614Z,52.65
2022-09-12T19:59:11.125Z,52.75
2022-09-12T20:01:39.364Z,52.88
2022-09-12T20:04:08.656Z,52.96
2022-09-12T20:06:36.710Z,53.07
2022-09-12T20:09:04.807Z,53.03
2022-09-12T20:11:32.829Z,53.02
2022-09-12T20:14:01.571Z,53.12
2022-09-12T20:16:30.072Z,53.97
2022-09-12T20:19:02.300Z,55.06
2022-09-12T20:21:36.152Z,55.00
2022-09-12T20:24:07.640Z,55.31
2022-09-12T20:26:36.688Z,54.58
2022-09-12T20:29:05.424Z,54.45
2022-09-12T20:31:36.593Z,54.40
2022-09-12T20:34:06.576Z,54.48
2022-09-12T20:36:35.829Z,54.04
2022-09-12T20:39:05.807Z,53.91
2022-09-12T20:41:36.623Z,54.06
2022-09-12T20:44:04.628Z,54.17
2022-09-12T20:46:33.418Z,54.31
2022-09-12T20:49:01.766Z,54.41
2022-09-12T20:51:30.470Z,54.06
2022-09-12T20:54:03.373Z,54.41
2022-09-12T20:56:34.051Z,54.55
2022-09-12T20:59:04.313Z,54.47
2022-09-12T21:01:33.109Z,54.45
2022-09-12T21:04:02.670Z,54.52
2022-09-12T21:06:31.691Z,54.60
2022-09-12T21:09:01.094Z,55.24
2022-09-12T21:11:29.701Z,54.97
2022-09-12T21:13:58.101Z,55.36
2022-09-12T21:16:26.583Z,55.35
2022-09-12T21:18:58.858Z,55.29
2022-09-12T21:21:27.160Z,55.59
2022-09-12T21:24:00.457Z,55.64
2022-09-12T21:26:29.403Z,55.58
2022-09-12T21:28:58.501Z,56.05
2022-09-12T21:31:27.242Z,55.33
2022-09-12T21:33:55.263Z,55.98
2022-09-12T21:36:24.828Z,56.43
2022-09-12T21:38:52.890Z,57.45
2022-09-12T21:41:22.703Z,58.05
2022-09-12T21:43:51.238Z,58.53
2022-09-12T21:46:19.215Z,58.31
2022-09-12T21:48:47.416Z,57.97
2022-09-12T21:51:15.372Z,58.48
2022-09-12T21:53:43.590Z,58.63
2022-09-12T21:56:11.827Z,58.44
2022-09-12T21:58:41.333Z,58.47
2022-09-12T22:01:11.741Z,58.07
2022-09-12T22:03:42.460Z,58.96
2022-09-12T22:06:10.413Z,59.49
2022-09-12T22:08:39.156Z,60.97
2022-09-12T22:11:11.770Z,59.91
2022-09-12T22:13:45.716Z,59.40
2022-09-12T22:16:14.334Z,60.84
2022-09-12T22:18:42.200Z,60.28
2022-09-12T22:21:15.842Z,60.24
2022-09-12T22:24:02.478Z,60.79
2022-09-12T22:26:34.935Z,60.08
2022-09-12T22:29:04.921Z,61.05
2022-09-12T22:31:34.219Z,61.79
2022-09-12T22:34:02.398Z,60.98
2022-09-12T22:36:31.879Z,60.56
2022-09-12T22:39:00.677Z,60.94
2022-09-12T22:41:28.626Z,60.53
2022-09-12T22:43:57.275Z,60.94
2022-09-12T22:46:27.453Z,61.24
2022-09-12T22:48:55.784Z,61.39
2022-09-12T22:51:24.184Z,61.47
2022-09-12T22:53:52.431Z,61.66
2022-09-12T22:56:20.245Z,61.00
2022-09-12T22:58:48.612Z,62.18
2022-09-12T23:01:17.454Z,61.98
2022-09-12T23:03:46.656Z,60.94
2022-09-12T23:06:14.815Z,60.49
2022-09-12T23:08:43.631Z,61.08
2022-09-12T23:11:13.918Z,60.65
2022-09-12T23:13:44.670Z,60.29
2022-09-12T23:16:17.010Z,59.77
2022-09-12T23:18:46.543Z,60.55
2022-09-12T23:21:17.098Z,59.66
2022-09-12T23:23:44.984Z,59.94
2022-09-12T23:26:15.440Z,59.11
2022-09-12T23:28:52.683Z,59.26
2022-09-12T23:31:21.378Z,60.03
2022-09-12T23:33:53.262Z,59.24
2022-09-12T23:36:22.332Z,60.04
2022-09-12T23:38:50.931Z,59.75
2022-09-12T23:41:19.971Z,60.73
2022-09-12T23:43:48.183Z,61.21
2022-09-12T23:46:18.438Z,60.63
2022-09-12T23:48:46.584Z,60.69
2022-09-12T23:51:16.434Z,60.21
2022-09-12T23:53:44.261Z,59.91
2022-09-12T23:56:12.030Z,59.50
2022-09-12T23:58:39.859Z,59.17
